sensor_id;sensor_type;location;lat;lon;timestamp;P1;durP1;ratioP1;P2;durP2;ratioP2
49131;SDS011;35149;51.196;6.204;2024-03-08T00:00:34;20.70;;;15.93;;
49131;SDS011;35149;51.196;6.204;2024-03-08T00:03:01;21.30;;;16.20;;
49131;SDS011;35149;51.196;6.204;2024-03-08T00:05:29;19.80;;;16.63;;
49131;SDS011;35149;51.196;6.204;2024-03-08T00:07:56;19.35;;;16.35;;
49131;SDS011;35149;51.196;6.204;2024-03-08T00:10:23;20.33;;;16.42;;
49131;SDS011;35149;51.196;6.204;2024-03-08T00:12:53;19.27;;;16.13;;
49131;SDS011;35149;51.196;6.204;2024-03-08T00:15:20;19.60;;;16.85;;
49131;SDS011;35149;51.196;6.204;2024-03-08T00:17:49;25.35;;;17.33;;
49131;SDS011;35149;51.196;6.204;2024-03-08T00:20:16;22.98;;;16.67;;
49131;SDS011;35149;51.196;6.204;2024-03-08T00:22:46;21.90;;;16.42;;
49131;SDS011;35149;51.196;6.204;2024-03-08T00:25:13;21.58;;;16.80;;
49131;SDS011;35149;51.196;6.204;2024-03-08T00:27:39;21.70;;;16.88;;
49131;SDS011;35149;51.196;6.204;2024-03-08T00:30:07;20.17;;;16.23;;
49131;SDS011;35149;51.196;6.204;2024-03-08T00:32:35;19.98;;;16.42;;
49131;SDS011;35149;51.196;6.204;2024-03-08T00:35:03;21.83;;;16.95;;
49131;SDS011;35149;51.196;6.204;2024-03-08T00:37:30;20.98;;;17.30;;
49131;SDS011;35149;51.196;6.204;2024-03-08T00:39:57;23.48;;;17.33;;
49131;SDS011;35149;51.196;6.204;2024-03-08T00:42:24;21.70;;;16.83;;
49131;SDS011;35149;51.196;6.204;2024-03-08T00:44:51;20.40;;;17.48;;
49131;SDS011;35149;51.196;6.204;2024-03-08T00:47:18;24.17;;;17.95;;
49131;SDS011;35149;51.196;6.204;2024-03-08T00:49:45;24.70;;;17.65;;
49131;SDS011;35149;51.196;6.204;2024-03-08T00:52:12;23.13;;;16.48;;
49131;SDS011;35149;51.196;6.204;2024-03-08T00:54:39;22.95;;;17.67;;
49131;SDS011;35149;51.196;6.204;2024-03-08T00:57:06;20.88;;;16.98;;
49131;SDS011;35149;51.196;6.204;2024-03-08T00:59:33;22.48;;;16.77;;
49131;SDS011;35149;51.196;6.204;2024-03-08T01:02:01;22.60;;;16.90;;
49131;SDS011;35149;51.196;6.204;2024-03-08T01:04:28;19.98;;;16.88;;
49131;SDS011;35149;51.196;6.204;2024-03-08T01:06:56;21.25;;;16.70;;
49131;SDS011;35149;51.196;6.204;2024-03-08T01:09:23;22.20;;;17.80;;
49131;SDS011;35149;51.196;6.204;2024-03-08T01:11:50;22.75;;;17.65;;
49131;SDS011;35149;51.196;6.204;2024-03-08T01:14:19;22.80;;;16.63;;
49131;SDS011;35149;51.196;6.204;2024-03-08T01:16:48;22.60;;;16.42;;
49131;SDS011;35149;51.196;6.204;2024-03-08T01:19:16;23.48;;;16.92;;
49131;SDS011;35149;51.196;6.204;2024-03-08T01:21:42;24.85;;;17.58;;
49131;SDS011;35149;51.196;6.204;2024-03-08T01:24:09;23.63;;;17.27;;
49131;SDS011;35149;51.196;6.204;2024-03-08T01:26:36;22.73;;;17.08;;
49131;SDS011;35149;51.196;6.204;2024-03-08T01:29:03;22.85;;;16.58;;
49131;SDS011;35149;51.196;6.204;2024-03-08T01:31:30;20.55;;;17.23;;
49131;SDS011;35149;51.196;6.204;2024-03-08T01:33:57;23.98;;;17.30;;
49131;SDS011;35149;51.196;6.204;2024-03-08T01:36:24;20.95;;;16.63;;
49131;SDS011;35149;51.196;6.204;2024-03-08T01:38:52;21.80;;;16.77;;
49131;SDS011;35149;51.196;6.204;2024-03-08T01:41:19;23.38;;;17.48;;
49131;SDS011;35149;51.196;6.204;2024-03-08T01:43:46;21.55;;;16.88;;
49131;SDS011;35149;51.196;6.204;2024-03-08T01:46:14;22.10;;;16.92;;
49131;SDS011;35149;51.196;6.204;2024-03-08T01:48:43;23.33;;;16.95;;
49131;SDS011;35149;51.196;6.204;2024-03-08T01:51:11;20.98;;;16.08;;
49131;SDS011;35149;51.196;6.204;2024-03-08T01:53:42;22.10;;;16.58;;
49131;SDS011;35149;51.196;6.204;2024-03-08T01:56:12;21.27;;;15.73;;
49131;SDS011;35149;51.196;6.204;2024-03-08T01:58:42;25.10;;;16.60;;
49131;SDS011;35149;51.196;6.204;2024-03-08T02:01:12;21.17;;;15.82;;
49131;SDS011;35149;51.196;6.204;2024-03-08T02:03:43;21.50;;;16.45;;
49131;SDS011;35149;51.196;6.204;2024-03-08T02:06:11;22.02;;;16.80;;
49131;SDS011;35149;51.196;6.204;2024-03-08T02:08:41;21.80;;;16.58;;
49131;SDS011;35149;51.196;6.204;2024-03-08T02:11:10;27.48;;;17.38;;
49131;SDS011;35149;51.196;6.204;2024-03-08T02:13:37;23.00;;;16.73;;
49131;SDS011;35149;51.196;6.204;2024-03-08T02:16:04;21.55;;;16.80;;
49131;SDS011;35149;51.196;6.204;2024-03-08T02:18:34;22.30;;;16.38;;
49131;SDS011;35149;51.196;6.204;2024-03-08T02:21:02;23.00;;;16.77;;
49131;SDS011;35149;51.196;6.204;2024-03-08T02:23:30;24.58;;;18.67;;
49131;SDS011;35149;51.196;6.204;2024-03-08T02:25:59;22.83;;;17.30;;
49131;SDS011;35149;51.196;6.204;2024-03-08T02:28:26;22.02;;;16.58;;
49131;SDS011;35149;51.196;6.204;2024-03-08T02:30:53;21.70;;;15.52;;
49131;SDS011;35149;51.196;6.204;2024-03-08T02:33:24;32.33;;;17.10;;
49131;SDS011;35149;51.196;6.204;2024-03-08T02:35:54;24.55;;;16.50;;
49131;SDS011;35149;51.196;6.204;2024-03-08T02:38:22;19.67;;;15.35;;
49131;SDS011;35149;51.196;6.204;2024-03-08T02:40:51;23.38;;;16.50;;
49131;SDS011;35149;51.196;6.204;2024-03-08T02:43:19;22.65;;;17.17;;
49131;SDS011;35149;51.196;6.204;2024-03-08T02:45:50;22.60;;;16.48;;
49131;SDS011;35149;51.196;6.204;2024-03-08T02:48:19;24.25;;;16.38;;
49131;SDS011;35149;51.196;6.204;2024-03-08T02:50:45;24.25;;;17.00;;
49131;SDS011;35149;51.196;6.204;2024-03-08T02:53:12;26.48;;;17.60;;
49131;SDS011;35149;51.196;6.204;2024-03-08T02:55:40;23.55;;;15.52;;
49131;SDS011;35149;51.196;6.204;2024-03-08T02:58:08;24.70;;;17.13;;
49131;SDS011;35149;51.196;6.204;2024-03-08T03:00:38;23.67;;;17.55;;
49131;SDS011;35149;51.196;6.204;2024-03-08T03:03:06;22.67;;;17.08;;
49131;SDS011;35149;51.196;6.204;2024-03-08T03:05:34;23.08;;;17.27;;
49131;SDS011;35149;51.196;6.204;2024-03-08T03:08:00;22.00;;;16.98;;
49131;SDS011;35149;51.196;6.204;2024-03-08T03:10:27;23.33;;;16.65;;
49131;SDS011;35149;51.196;6.204;2024-03-08T03:12:54;22.45;;;16.85;;
49131;SDS011;35149;51.196;6.204;2024-03-08T03:15:21;23.40;;;15.93;;
49131;SDS011;35149;51.196;6.204;2024-03-08T03:17:52;23.25;;;16.90;;
49131;SDS011;35149;51.196;6.204;2024-03-08T03:20:19;24.25;;;16.25;;
49131;SDS011;35149;51.196;6.204;2024-03-08T03:22:53;23.52;;;16.88;;
49131;SDS011;35149;51.196;6.204;2024-03-08T03:25:20;21.15;;;16.10;;
49131;SDS011;35149;51.196;6.204;2024-03-08T03:27:54;25.15;;;17.55;;
49131;SDS011;35149;51.196;6.204;2024-03-08T03:30:24;22.83;;;16.55;;
49131;SDS011;35149;51.196;6.204;2024-03-08T03:32:53;24.80;;;15.77;;
49131;SDS011;35149;51.196;6.204;2024-03-08T03:35:21;24.90;;;15.90;;
49131;SDS011;35149;51.196;6.204;2024-03-08T03:37:48;21.70;;;16.55;;
49131;SDS011;35149;51.196;6.204;2024-03-08T03:40:35;23.40;;;17.02;;
49131;SDS011;35149;51.196;6.204;2024-03-08T03:43:03;29.70;;;17.60;;
49131;SDS011;35149;51.196;6.204;2024-03-08T03:45:30;24.92;;;16.88;;
49131;SDS011;35149;51.196;6.204;2024-03-08T03:48:01;25.20;;;17.40;;
49131;SDS011;35149;51.196;6.204;2024-03-08T03:50:29;23.40;;;16.55;;
49131;SDS011;35149;51.196;6.204;2024-03-08T03:52:56;26.27;;;18.30;;
49131;SDS011;35149;51.196;6.204;2024-03-08T03:55:23;22.52;;;16.65;;
49131;SDS011;35149;51.196;6.204;2024-03-08T03:57:50;25.08;;;17.85;;
49131;SDS011;35149;51.196;6.204;2024-03-08T04:00:17;24.48;;;18.00;;
49131;SDS011;35149;51.196;6.204;2024-03-08T04:02:44;26.40;;;17.98;;
49131;SDS011;35149;51.196;6.204;2024-03-08T04:05:12;23.65;;;16.92;;
49131;SDS011;35149;51.196;6.204;2024-03-08T04:07:39;25.85;;;17.30;;
49131;SDS011;35149;51.196;6.204;2024-03-08T04:10:06;24.35;;;17.40;;
49131;SDS011;35149;51.196;6.204;2024-03-08T04:12:35;24.20;;;17.85;;
49131;SDS011;35149;51.196;6.204;2024-03-08T04:15:02;26.25;;;17.73;;
49131;SDS011;35149;51.196;6.204;2024-03-08T04:17:31;22.42;;;15.98;;
49131;SDS011;35149;51.196;6.204;2024-03-08T04:19:57;23.02;;;17.45;;
49131;SDS011;35149;51.196;6.204;2024-03-08T04:22:24;24.98;;;17.77;;
49131;SDS011;35149;51.196;6.204;2024-03-08T04:24:51;24.50;;;16.70;;
49131;SDS011;35149;51.196;6.204;2024-03-08T04:27:18;26.75;;;17.90;;
49131;SDS011;35149;51.196;6.204;2024-03-08T04:29:45;25.23;;;18.40;;
49131;SDS011;35149;51.196;6.204;2024-03-08T04:32:12;24.85;;;18.85;;
49131;SDS011;35149;51.196;6.204;2024-03-08T04:34:39;28.50;;;18.77;;
49131;SDS011;35149;51.196;6.204;2024-03-08T04:37:11;26.87;;;16.97;;
49131;SDS011;35149;51.196;6.204;2024-03-08T04:39:39;24.65;;;16.55;;
49131;SDS011;35149;51.196;6.204;2024-03-08T04:42:06;27.67;;;17.60;;
49131;SDS011;35149;51.196;6.204;2024-03-08T04:44:36;27.30;;;18.23;;
49131;SDS011;35149;51.196;6.204;2024-03-08T04:47:06;28.33;;;19.48;;
49131;SDS011;35149;51.196;6.204;2024-03-08T04:49:33;28.85;;;19.60;;
49131;SDS011;35149;51.196;6.204;2024-03-08T04:52:01;30.02;;;19.25;;
49131;SDS011;35149;51.196;6.204;2024-03-08T04:54:29;27.85;;;17.77;;
49131;SDS011;35149;51.196;6.204;2024-03-08T04:56:57;26.58;;;17.52;;
49131;SDS011;35149;51.196;6.204;2024-03-08T04:59:24;28.40;;;19.05;;
49131;SDS011;35149;51.196;6.204;2024-03-08T05:01:50;26.33;;;18.40;;
49131;SDS011;35149;51.196;6.204;2024-03-08T05:04:17;29.02;;;19.85;;
49131;SDS011;35149;51.196;6.204;2024-03-08T05:06:44;25.15;;;17.90;;
49131;SDS011;35149;51.196;6.204;2024-03-08T05:09:11;27.52;;;19.25;;
49131;SDS011;35149;51.196;6.204;2024-03-08T05:11:45;27.95;;;18.08;;
49131;SDS011;35149;51.196;6.204;2024-03-08T05:14:13;28.55;;;18.63;;
49131;SDS011;35149;51.196;6.204;2024-03-08T05:16:46;27.05;;;18.95;;
49131;SDS011;35149;51.196;6.204;2024-03-08T05:19:18;27.15;;;19.13;;
49131;SDS011;35149;51.196;6.204;2024-03-08T05:21:46;27.92;;;18.67;;
49131;SDS011;35149;51.196;6.204;2024-03-08T05:24:14;27.88;;;19.17;;
49131;SDS011;35149;51.196;6.204;2024-03-08T05:26:45;26.63;;;18.52;;
49131;SDS011;35149;51.196;6.204;2024-03-08T05:29:13;27.40;;;18.20;;
49131;SDS011;35149;51.196;6.204;2024-03-08T05:34:18;26.10;;;18.25;;
49131;SDS011;35149;51.196;6.204;2024-03-08T05:36:48;27.67;;;18.38;;
49131;SDS011;35149;51.196;6.204;2024-03-08T05:39:16;28.13;;;18.40;;
49131;SDS011;35149;51.196;6.204;2024-03-08T05:41:44;30.48;;;19.63;;
49131;SDS011;35149;51.196;6.204;2024-03-08T05:44:12;31.60;;;18.90;;
49131;SDS011;35149;51.196;6.204;2024-03-08T05:46:39;26.83;;;18.75;;
49131;SDS011;35149;51.196;6.204;2024-03-08T05:49:06;30.42;;;18.55;;
49131;SDS011;35149;51.196;6.204;2024-03-08T05:51:36;28.10;;;18.50;;
49131;SDS011;35149;51.196;6.204;2024-03-08T05:54:09;32.75;;;19.05;;
49131;SDS011;35149;51.196;6.204;2024-03-08T05:56:38;27.42;;;18.83;;
49131;SDS011;35149;51.196;6.204;2024-03-08T05:59:08;27.20;;;18.27;;
49131;SDS011;35149;51.196;6.204;2024-03-08T06:01:35;30.10;;;19.63;;
49131;SDS011;35149;51.196;6.204;2024-03-08T06:04:03;25.70;;;18.10;;
49131;SDS011;35149;51.196;6.204;2024-03-08T06:06:30;28.50;;;19.40;;
49131;SDS011;35149;51.196;6.204;2024-03-08T06:08:57;29.52;;;19.15;;
49131;SDS011;35149;51.196;6.204;2024-03-08T06:11:25;29.83;;;19.33;;
49131;SDS011;35149;51.196;6.204;2024-03-08T06:13:54;26.38;;;18.42;;
49131;SDS011;35149;51.196;6.204;2024-03-08T06:16:26;27.92;;;20.15;;
49131;SDS011;35149;51.196;6.204;2024-03-08T06:18:56;29.13;;;20.30;;
49131;SDS011;35149;51.196;6.204;2024-03-08T06:21:23;27.65;;;18.95;;
49131;SDS011;35149;51.196;6.204;2024-03-08T06:23:54;31.85;;;20.25;;
49131;SDS011;35149;51.196;6.204;2024-03-08T06:26:21;27.33;;;18.15;;
49131;SDS011;35149;51.196;6.204;2024-03-08T06:28:48;29.77;;;19.13;;
49131;SDS011;35149;51.196;6.204;2024-03-08T06:31:15;29.65;;;20.48;;
49131;SDS011;35149;51.196;6.204;2024-03-08T06:33:42;31.45;;;20.05;;
49131;SDS011;35149;51.196;6.204;2024-03-08T06:36:09;30.42;;;19.08;;
49131;SDS011;35149;51.196;6.204;2024-03-08T06:38:40;23.08;;;14.50;;
49131;SDS011;35149;51.196;6.204;2024-03-08T06:41:09;30.88;;;19.58;;
49131;SDS011;35149;51.196;6.204;2024-03-08T06:43:41;35.10;;;20.85;;
49131;SDS011;35149;51.196;6.204;2024-03-08T06:46:12;28.25;;;21.08;;
49131;SDS011;35149;51.196;6.204;2024-03-08T06:48:39;32.72;;;20.42;;
49131;SDS011;35149;51.196;6.204;2024-03-08T06:51:06;32.67;;;21.05;;
49131;SDS011;35149;51.196;6.204;2024-03-08T06:53:33;27.85;;;19.75;;
49131;SDS011;35149;51.196;6.204;2024-03-08T06:56:04;33.72;;;21.88;;
49131;SDS011;35149;51.196;6.204;2024-03-08T06:58:31;28.20;;;20.27;;
49131;SDS011;35149;51.196;6.204;2024-03-08T07:00:58;29.42;;;20.05;;
49131;SDS011;35149;51.196;6.204;2024-03-08T07:03:26;33.95;;;20.85;;
49131;SDS011;35149;51.196;6.204;2024-03-08T07:05:56;35.63;;;21.27;;
49131;SDS011;35149;51.196;6.204;2024-03-08T07:08:24;28.00;;;19.60;;
49131;SDS011;35149;51.196;6.204;2024-03-08T07:10:53;31.92;;;20.52;;
49131;SDS011;35149;51.196;6.204;2024-03-08T07:13:20;28.13;;;19.98;;
49131;SDS011;35149;51.196;6.204;2024-03-08T07:15:47;30.73;;;20.40;;
49131;SDS011;35149;51.196;6.204;2024-03-08T07:18:14;30.42;;;19.95;;
49131;SDS011;35149;51.196;6.204;2024-03-08T07:20:41;30.65;;;19.02;;
49131;SDS011;35149;51.196;6.204;2024-03-08T07:23:09;32.08;;;20.48;;
49131;SDS011;35149;51.196;6.204;2024-03-08T07:25:36;30.08;;;19.48;;
49131;SDS011;35149;51.196;6.204;2024-03-08T07:28:05;32.38;;;20.33;;
49131;SDS011;35149;51.196;6.204;2024-03-08T07:30:33;30.15;;;20.33;;
49131;SDS011;35149;51.196;6.204;2024-03-08T07:33:12;29.15;;;19.02;;
49131;SDS011;35149;51.196;6.204;2024-03-08T07:35:40;31.45;;;19.48;;
49131;SDS011;35149;51.196;6.204;2024-03-08T07:38:08;33.97;;;21.40;;
49131;SDS011;35149;51.196;6.204;2024-03-08T07:40:38;33.40;;;21.30;;
49131;SDS011;35149;51.196;6.204;2024-03-08T07:43:15;31.77;;;20.75;;
49131;SDS011;35149;51.196;6.204;2024-03-08T07:45:42;32.60;;;21.05;;
49131;SDS011;35149;51.196;6.204;2024-03-08T07:48:09;30.95;;;21.02;;
49131;SDS011;35149;51.196;6.204;2024-03-08T07:50:37;32.85;;;21.00;;
49131;SDS011;35149;51.196;6.204;2024-03-08T07:53:06;28.25;;;20.08;;
49131;SDS011;35149;51.196;6.204;2024-03-08T07:55:36;29.73;;;20.08;;
49131;SDS011;35149;51.196;6.204;2024-03-08T07:58:02;32.95;;;20.63;;
49131;SDS011;35149;51.196;6.204;2024-03-08T08:00:30;29.38;;;20.77;;
49131;SDS011;35149;51.196;6.204;2024-03-08T08:02:58;29.35;;;18.98;;
49131;SDS011;35149;51.196;6.204;2024-03-08T08:05:24;29.98;;;19.55;;
49131;SDS011;35149;51.196;6.204;2024-03-08T08:07:52;31.90;;;19.83;;
49131;SDS011;35149;51.196;6.204;2024-03-08T08:10:19;28.95;;;19.58;;
49131;SDS011;35149;51.196;6.204;2024-03-08T08:15:18;26.88;;;17.77;;
49131;SDS011;35149;51.196;6.204;2024-03-08T08:17:45;30.42;;;19.08;;
49131;SDS011;35149;51.196;6.204;2024-03-08T08:20:13;32.25;;;20.05;;
49131;SDS011;35149;51.196;6.204;2024-03-08T08:22:41;27.50;;;19.23;;
49131;SDS011;35149;51.196;6.204;2024-03-08T08:25:09;28.08;;;19.48;;
49131;SDS011;35149;51.196;6.204;2024-03-08T08:27:40;29.60;;;19.33;;
49131;SDS011;35149;51.196;6.204;2024-03-08T08:30:08;33.13;;;21.35;;
49131;SDS011;35149;51.196;6.204;2024-03-08T08:32:37;32.70;;;20.45;;
49131;SDS011;35149;51.196;6.204;2024-03-08T08:35:10;35.05;;;22.42;;
49131;SDS011;35149;51.196;6.204;2024-03-08T08:37:38;30.65;;;20.23;;
49131;SDS011;35149;51.196;6.204;2024-03-08T08:40:06;32.17;;;20.63;;
49131;SDS011;35149;51.196;6.204;2024-03-08T08:42:37;29.52;;;20.52;;
49131;SDS011;35149;51.196;6.204;2024-03-08T08:45:06;29.67;;;19.35;;
49131;SDS011;35149;51.196;6.204;2024-03-08T08:47:43;26.88;;;19.58;;
49131;SDS011;35149;51.196;6.204;2024-03-08T08:50:11;29.35;;;20.30;;
49131;SDS011;35149;51.196;6.204;2024-03-08T08:52:38;26.35;;;19.52;;
49131;SDS011;35149;51.196;6.204;2024-03-08T08:55:06;30.00;;;19.73;;
49131;SDS011;35149;51.196;6.204;2024-03-08T08:57:33;27.98;;;20.40;;
49131;SDS011;35149;51.196;6.204;2024-03-08T09:00:01;31.45;;;20.80;;
49131;SDS011;35149;51.196;6.204;2024-03-08T09:02:33;30.48;;;20.30;;
49131;SDS011;35149;51.196;6.204;2024-03-08T09:05:00;29.02;;;20.63;;
49131;SDS011;35149;51.196;6.204;2024-03-08T09:07:28;28.92;;;19.15;;
49131;SDS011;35149;51.196;6.204;2024-03-08T09:09:55;26.95;;;18.35;;
49131;SDS011;35149;51.196;6.204;2024-03-08T09:12:24;25.92;;;18.40;;
49131;SDS011;35149;51.196;6.204;2024-03-08T09:14:51;34.53;;;20.13;;
49131;SDS011;35149;51.196;6.204;2024-03-08T09:17:18;29.67;;;19.10;;
49131;SDS011;35149;51.196;6.204;2024-03-08T09:19:46;28.70;;;19.77;;
49131;SDS011;35149;51.196;6.204;2024-03-08T09:22:16;24.98;;;17.92;;
49131;SDS011;35149;51.196;6.204;2024-03-08T09:24:44;26.23;;;19.30;;
49131;SDS011;35149;51.196;6.204;2024-03-08T09:27:11;26.45;;;18.73;;
49131;SDS011;35149;51.196;6.204;2024-03-08T09:29:40;28.80;;;20.30;;
49131;SDS011;35149;51.196;6.204;2024-03-08T09:32:06;33.40;;;19.55;;
49131;SDS011;35149;51.196;6.204;2024-03-08T09:34:33;25.92;;;18.30;;
49131;SDS011;35149;51.196;6.204;2024-03-08T09:37:03;25.23;;;17.90;;
49131;SDS011;35149;51.196;6.204;2024-03-08T09:39:31;27.00;;;18.38;;
49131;SDS011;35149;51.196;6.204;2024-03-08T09:41:59;27.40;;;18.38;;
49131;SDS011;35149;51.196;6.204;2024-03-08T09:44:27;27.25;;;19.40;;
49131;SDS011;35149;51.196;6.204;2024-03-08T09:46:55;25.20;;;17.63;;
49131;SDS011;35149;51.196;6.204;2024-03-08T09:49:22;24.25;;;17.15;;
49131;SDS011;35149;51.196;6.204;2024-03-08T09:51:49;26.80;;;18.25;;
49131;SDS011;35149;51.196;6.204;2024-03-08T09:54:19;23.25;;;16.92;;
49131;SDS011;35149;51.196;6.204;2024-03-08T09:56:51;26.95;;;18.05;;
49131;SDS011;35149;51.196;6.204;2024-03-08T09:59:18;24.02;;;17.95;;
49131;SDS011;35149;51.196;6.204;2024-03-08T10:01:54;25.00;;;17.23;;
49131;SDS011;35149;51.196;6.204;2024-03-08T10:04:22;22.88;;;16.35;;
49131;SDS011;35149;51.196;6.204;2024-03-08T10:06:49;23.65;;;16.30;;
49131;SDS011;35149;51.196;6.204;2024-03-08T10:09:16;24.73;;;18.95;;
49131;SDS011;35149;51.196;6.204;2024-03-08T10:11:43;23.02;;;17.35;;
49131;SDS011;35149;51.196;6.204;2024-03-08T10:14:10;21.30;;;16.20;;
49131;SDS011;35149;51.196;6.204;2024-03-08T10:16:38;23.40;;;16.92;;
49131;SDS011;35149;51.196;6.204;2024-03-08T10:19:05;22.30;;;15.80;;
49131;SDS011;35149;51.196;6.204;2024-03-08T10:21:33;23.13;;;16.75;;
49131;SDS011;35149;51.196;6.204;2024-03-08T10:24:02;23.02;;;16.38;;
49131;SDS011;35149;51.196;6.204;2024-03-08T10:26:29;20.83;;;14.75;;
49131;SDS011;35149;51.196;6.204;2024-03-08T10:28:56;21.50;;;15.98;;
49131;SDS011;35149;51.196;6.204;2024-03-08T10:31:24;21.13;;;15.23;;
49131;SDS011;35149;51.196;6.204;2024-03-08T10:33:51;19.48;;;15.63;;
49131;SDS011;35149;51.196;6.204;2024-03-08T10:36:18;20.42;;;15.02;;
49131;SDS011;35149;51.196;6.204;2024-03-08T10:38:45;20.33;;;14.38;;
49131;SDS011;35149;51.196;6.204;2024-03-08T10:41:15;18.33;;;14.77;;
49131;SDS011;35149;51.196;6.204;2024-03-08T10:43:51;23.90;;;15.65;;
49131;SDS011;35149;51.196;6.204;2024-03-08T10:46:45;21.60;;;15.82;;
49131;SDS011;35149;51.196;6.204;2024-03-08T10:49:18;20.13;;;15.45;;
49131;SDS011;35149;51.196;6.204;2024-03-08T10:51:57;19.80;;;14.85;;
49131;SDS011;35149;51.196;6.204;2024-03-08T10:54:25;23.05;;;16.40;;
49131;SDS011;35149;51.196;6.204;2024-03-08T10:56:53;18.58;;;14.93;;
49131;SDS011;35149;51.196;6.204;2024-03-08T10:59:21;20.38;;;15.35;;
49131;SDS011;35149;51.196;6.204;2024-03-08T11:01:49;21.13;;;15.82;;
49131;SDS011;35149;51.196;6.204;2024-03-08T11:04:17;20.65;;;15.25;;
49131;SDS011;35149;51.196;6.204;2024-03-08T11:06:50;19.17;;;15.27;;
49131;SDS011;35149;51.196;6.204;2024-03-08T11:09:27;20.10;;;14.65;;
49131;SDS011;35149;51.196;6.204;2024-03-08T11:14:52;20.15;;;14.60;;
49131;SDS011;35149;51.196;6.204;2024-03-08T11:17:20;19.75;;;15.57;;
49131;SDS011;35149;51.196;6.204;2024-03-08T11:19:51;20.13;;;14.15;;
49131;SDS011;35149;51.196;6.204;2024-03-08T11:22:23;19.85;;;13.50;;
49131;SDS011;35149;51.196;6.204;2024-03-08T11:25:02;19.30;;;14.32;;
49131;SDS011;35149;51.196;6.204;2024-03-08T11:27:36;20.65;;;14.13;;
49131;SDS011;35149;51.196;6.204;2024-03-08T11:30:05;19.20;;;13.88;;
49131;SDS011;35149;51.196;6.204;2024-03-08T11:32:47;18.15;;;13.10;;
49131;SDS011;35149;51.196;6.204;2024-03-08T11:35:20;18.35;;;13.10;;
49131;SDS011;35149;51.196;6.204;2024-03-08T11:37:49;15.05;;;12.38;;
49131;SDS011;35149;51.196;6.204;2024-03-08T11:40:17;16.90;;;13.50;;
49131;SDS011;35149;51.196;6.204;2024-03-08T11:42:47;20.85;;;14.00;;
49131;SDS011;35149;51.196;6.204;2024-03-08T11:45:15;17.33;;;13.68;;
49131;SDS011;35149;51.196;6.204;2024-03-08T11:47:44;17.77;;;13.20;;
49131;SDS011;35149;51.196;6.204;2024-03-08T11:50:15;16.48;;;12.20;;
49131;SDS011;35149;51.196;6.204;2024-03-08T11:52:44;15.40;;;12.00;;
49131;SDS011;35149;51.196;6.204;2024-03-08T11:55:12;18.65;;;14.13;;
49131;SDS011;35149;51.196;6.204;2024-03-08T11:57:39;14.63;;;12.60;;
49131;SDS011;35149;51.196;6.204;2024-03-08T12:00:14;15.35;;;12.43;;
49131;SDS011;35149;51.196;6.204;2024-03-08T12:03:02;15.57;;;11.73;;
49131;SDS011;35149;51.196;6.204;2024-03-08T12:05:29;14.60;;;11.48;;
49131;SDS011;35149;51.196;6.204;2024-03-08T12:07:57;18.67;;;11.45;;
49131;SDS011;35149;51.196;6.204;2024-03-08T12:10:25;22.42;;;11.18;;
49131;SDS011;35149;51.196;6.204;2024-03-08T12:12:53;15.93;;;11.05;;
49131;SDS011;35149;51.196;6.204;2024-03-08T12:15:21;18.20;;;11.50;;
49131;SDS011;35149;51.196;6.204;2024-03-08T12:17:49;14.35;;;9.50;;
49131;SDS011;35149;51.196;6.204;2024-03-08T12:20:21;17.00;;;10.25;;
49131;SDS011;35149;51.196;6.204;2024-03-08T12:22:52;17.60;;;11.40;;
49131;SDS011;35149;51.196;6.204;2024-03-08T12:25:20;18.50;;;11.02;;
49131;SDS011;35149;51.196;6.204;2024-03-08T12:27:47;12.88;;;9.82;;
49131;SDS011;35149;51.196;6.204;2024-03-08T12:30:18;13.40;;;10.70;;
49131;SDS011;35149;51.196;6.204;2024-03-08T12:32:54;13.25;;;10.35;;
49131;SDS011;35149;51.196;6.204;2024-03-08T12:35:25;13.02;;;9.98;;
49131;SDS011;35149;51.196;6.204;2024-03-08T12:37:54;15.40;;;10.50;;
49131;SDS011;35149;51.196;6.204;2024-03-08T12:40:26;15.82;;;10.80;;
49131;SDS011;35149;51.196;6.204;2024-03-08T12:42:55;13.25;;;9.98;;
49131;SDS011;35149;51.196;6.204;2024-03-08T12:45:22;13.15;;;10.13;;
49131;SDS011;35149;51.196;6.204;2024-03-08T12:47:50;13.05;;;10.32;;
49131;SDS011;35149;51.196;6.204;2024-03-08T12:50:17;15.57;;;11.05;;
49131;SDS011;35149;51.196;6.204;2024-03-08T12:52:45;12.25;;;9.88;;
49131;SDS011;35149;51.196;6.204;2024-03-08T12:55:11;14.52;;;10.57;;
49131;SDS011;35149;51.196;6.204;2024-03-08T12:57:38;13.73;;;9.90;;
49131;SDS011;35149;51.196;6.204;2024-03-08T13:00:05;12.93;;;10.00;;
49131;SDS011;35149;51.196;6.204;2024-03-08T13:02:39;13.30;;;9.90;;
49131;SDS011;35149;51.196;6.204;2024-03-08T13:05:06;11.65;;;9.13;;
49131;SDS011;35149;51.196;6.204;2024-03-08T13:07:35;15.35;;;9.90;;
49131;SDS011;35149;51.196;6.204;2024-03-08T13:10:03;13.85;;;10.05;;
49131;SDS011;35149;51.196;6.204;2024-03-08T13:12:31;14.65;;;9.95;;
49131;SDS011;35149;51.196;6.204;2024-03-08T13:14:57;12.77;;;10.25;;
49131;SDS011;35149;51.196;6.204;2024-03-08T13:17:24;12.30;;;9.45;;
49131;SDS011;35149;51.196;6.204;2024-03-08T13:19:51;11.95;;;10.07;;
49131;SDS011;35149;51.196;6.204;2024-03-08T13:22:23;12.18;;;9.77;;
49131;SDS011;35149;51.196;6.204;2024-03-08T13:24:51;13.05;;;10.05;;
49131;SDS011;35149;51.196;6.204;2024-03-08T13:27:19;11.57;;;9.07;;
49131;SDS011;35149;51.196;6.204;2024-03-08T13:29:47;12.82;;;10.15;;
49131;SDS011;35149;51.196;6.204;2024-03-08T13:32:16;13.65;;;9.80;;
49131;SDS011;35149;51.196;6.204;2024-03-08T13:34:43;13.73;;;9.82;;
49131;SDS011;35149;51.196;6.204;2024-03-08T13:37:13;14.75;;;10.52;;
49131;SDS011;35149;51.196;6.204;2024-03-08T13:39:42;14.60;;;10.68;;
49131;SDS011;35149;51.196;6.204;2024-03-08T13:42:12;17.13;;;10.43;;
49131;SDS011;35149;51.196;6.204;2024-03-08T13:44:47;15.13;;;9.85;;
49131;SDS011;35149;51.196;6.204;2024-03-08T13:47:16;10.07;;;8.93;;
49131;SDS011;35149;51.196;6.204;2024-03-08T13:49:44;13.02;;;10.10;;
49131;SDS011;35149;51.196;6.204;2024-03-08T13:52:11;13.65;;;9.65;;
49131;SDS011;35149;51.196;6.204;2024-03-08T13:54:40;12.82;;;10.32;;
49131;SDS011;35149;51.196;6.204;2024-03-08T13:57:07;13.10;;;9.13;;
49131;SDS011;35149;51.196;6.204;2024-03-08T13:59:34;10.45;;;9.00;;
49131;SDS011;35149;51.196;6.204;2024-03-08T14:02:01;12.07;;;8.98;;
49131;SDS011;35149;51.196;6.204;2024-03-08T14:04:28;11.30;;;8.43;;
49131;SDS011;35149;51.196;6.204;2024-03-08T14:06:55;9.57;;;8.25;;
49131;SDS011;35149;51.196;6.204;2024-03-08T14:09:30;8.75;;;7.53;;
49131;SDS011;35149;51.196;6.204;2024-03-08T14:11:57;9.38;;;8.27;;
49131;SDS011;35149;51.196;6.204;2024-03-08T14:14:24;9.32;;;8.10;;
49131;SDS011;35149;51.196;6.204;2024-03-08T14:16:51;11.90;;;8.85;;
49131;SDS011;35149;51.196;6.204;2024-03-08T14:19:24;8.57;;;7.50;;
49131;SDS011;35149;51.196;6.204;2024-03-08T14:21:51;8.70;;;7.80;;
49131;SDS011;35149;51.196;6.204;2024-03-08T14:24:19;9.77;;;7.63;;
49131;SDS011;35149;51.196;6.204;2024-03-08T14:26:46;9.88;;;8.38;;
49131;SDS011;35149;51.196;6.204;2024-03-08T14:29:15;8.77;;;7.88;;
49131;SDS011;35149;51.196;6.204;2024-03-08T14:31:41;9.93;;;8.65;;
49131;SDS011;35149;51.196;6.204;2024-03-08T14:34:09;9.07;;;7.43;;
49131;SDS011;35149;51.196;6.204;2024-03-08T14:36:36;8.18;;;7.15;;
49131;SDS011;35149;51.196;6.204;2024-03-08T14:39:04;8.18;;;7.38;;